Airfield :
LOGIN :

Register | Disclaimer

   EN    FR    IT 

 










Legend :    VFR   Marginal VFR   IFR   Intensive IFR   Very Intensive IFR
Visi :
Ceiling :
>= 8 km
>= 3000ft
5 to 8 km
1000 to 3000 ft
1500m to 5 km
500 to 1000 ft
800 to 1500m
200 to 500 ft
< 800m
< 200 ft
Symbols :   Thunderstorms  Fog  Heavy snow  Heavy precipitations  Wind > 20 kt
SIGMETs :     Misc.  Thunderstorms  Icing  Turbulence  Mountain Waves  Volcanic Ashes







- Airport Elevation : 499 ft
- IATA code : TLS
- Download approach charts


LFBO - Toulouse / Blagnac

CURRENT METAR :
  • 200700Z AUTO 31010KT 9999 BKN012 OVC043 18/16 Q1017 BECMG SCT025 BKN040

EXPIRED METARs :
  • 200630Z AUTO 30009KT 9999 BKN011 BKN042 OVC054 18/16 Q1017 BECMG SCT025 BKN040
  • 200600Z AUTO 31008KT 9999 FEW011 BKN042 BKN082 18/16 Q1016 NOSIG
  • 200530Z AUTO 29006KT 240V320 9999 FEW034 OVC041 17/16 Q1016 NOSIG
  • 200500Z AUTO 29007KT 9999 FEW031 OVC041 17/16 Q1017 NOSIG
  • 200430Z AUTO 32006KT 9999 2500 BKN041 BKN052 OVC110 17/15 Q1017 NOSIG

TAF AMD TAF LFBO
Valid from the 20 at 06:00 until the 21 at 12:00 UTC


200635Z 2006/2112 32006KT 9999 SCT025 BKN040
TEMPO 2006/2008 BKN010
BECMG 2010/2012 SCT040
BECMG 2016/2018 SCT045TCU
PROB40
TEMPO 2018/2022 -SHRA BKN035TCU
BECMG 2106/2108 BKN010 OVC020
TEMPO 2108/2112 RA OVC008
ATIS : +33 5 62 74 66 36
No reported NOTAMs for that airfield.



MET'MAP, your aeronautical weather chart ! - Copyright ORBIFLY December 2007 - Disclaimer

ORBIFLY MET'MAP TEAM :

Programming & Development : Alexandra Zaïnal
Concept & Development : Baudouin d'Aumeries
Co-Development & Prog : Marc-Olivier Méhu
Technical & hardware support : Manuel Goepfert

Contact : metmap@orbifly.com




SOURCES & CREDITS :

   NOAA